Latest Weather Observations for Coen Airport

IDQ60801

Issued at 2:35 pm EST Thursday 24 April 2014 (issued every 30 minutes, with the page automatically refreshed every 10 minutes)

About weather observations | Map of weather stations | Latest weather observations for QLD | Other Formats
Station Details ID: 027073 Name: COEN AIRPORT Lat: -13.76 Lon: 143.12 Height: 159.3 m
Data from the previous 72 hours. | See also: Recent months at Coen Airport
Date/Time
EST
Temp
°C
App
Temp
°C
Dew
Point
Rel
Hum
%
Delta-T
°C
Wind Press
QNH
hPa
Press
MSL
hPa
Rain
since 9 am
mm
Dir
 
Spd
km/h
Gust
km/h
Spd
kts
Gust
kts
24/02:30pm 29.7 31.4 23.4 69 4.4 ENE 20 32 11 17 1009.1 - 0.0
24/02:00pm 28.5 30.5 22.3 69 4.2 E 15 20 8 11 1009.4 - 0.0
24/01:30pm 28.7 30.3 22.9 71 4.0 E 19 32 10 17 1009.7 - 0.0
24/01:00pm 28.9 30.9 23.6 73 3.7 ENE 19 30 10 16 1010.0 - 0.0
24/12:30pm 27.8 30.2 23.0 75 3.3 ENE 15 22 8 12 1010.4 - 0.0
24/12:00pm 27.8 29.5 23.0 75 3.3 ENE 19 30 10 16 1010.8 1009.9 0.0
24/11:30am 28.3 31.1 23.7 76 3.2 ENE 15 20 8 11 1011.3 - 0.0
24/11:00am 28.0 30.6 24.0 79 2.8 ENE 17 30 9 16 1011.5 - 0.0
24/10:30am 27.3 29.1 23.5 80 2.6 E 20 39 11 21 1011.7 - 0.0
24/10:00am 27.3 30.7 24.6 85 1.9 ENE 15 28 8 15 1011.6 - 0.0
24/09:30am 28.8 35.9 27.9 95 0.7 NE 7 13 4 7 1011.4 - 0.0
24/09:00am 27.0 34.4 27.0 100 0.0 SSW 2 7 1 4 1011.2 1010.4 0.0
24/08:30am 25.5 32.3 25.5 100 0.0 SSE 0 0 0 0 1011.0 - 0.0
24/08:00am 24.2 30.2 24.2 100 0.0 CALM 0 6 0 3 1011.1 - 0.0
24/07:30am 23.5 28.3 23.5 100 0.0 S 4 7 2 4 1011.0 - 0.0
24/07:00am 23.2 28.6 23.2 100 0.0 CALM 0 6 0 3 1010.5 - 0.0
24/06:30am 22.8 27.9 22.6 99 0.1 CALM 0 0 0 0 1010.0 - 0.0
24/06:00am 23.2 28.5 23.0 99 0.1 E 0 0 0 0 1009.8 1009.0 0.0
24/05:30am 23.5 28.9 23.2 98 0.2 CALM 0 0 0 0 1009.8 - 0.0
24/05:00am 23.4 28.6 22.9 97 0.3 CALM 0 0 0 0 1009.6 - 0.0
24/04:30am 23.2 27.4 22.5 96 0.5 WNW 4 7 2 4 1009.5 - 0.0
24/04:00am 23.1 26.7 22.3 95 0.5 W 7 9 4 5 1009.3 - 0.0
24/03:30am 23.1 27.9 22.1 94 0.7 CALM 0 0 0 0 1008.9 - 0.0
24/03:00am 23.0 27.6 21.8 93 0.8 CALM 0 0 0 0 1009.2 1008.3 0.0
24/02:30am 22.9 27.0 21.5 92 0.9 NE 2 7 1 4 1009.2 - 0.0
24/02:00am 23.0 27.4 21.4 91 1.1 CALM 0 0 0 0 1009.7 - 0.0
24/01:30am 23.1 26.8 21.4 90 1.1 WSW 4 9 2 5 1010.5 - 0.0
24/01:00am 23.2 27.6 21.3 89 1.3 CALM 0 2 0 1 1010.8 - 0.0
24/12:30am 23.3 27.6 21.2 88 1.4 CALM 0 0 0 0 1011.4 - 0.0
24/12:00am 23.3 25.4 21.0 87 1.5 WNW 11 13 6 7 1011.5 1010.7 0.0
 
Date/Time
EST
Temp
°C
App
Temp
°C
Dew
Point
Rel
Hum
%
Delta-T
°C
Wind Press
QNH
hPa
Press
MSL
hPa
Rain
since 9 am
mm
Dir
 
Spd
km/h
Gust
km/h
Spd
kts
Gust
kts
23/11:30pm 23.4 26.8 20.9 86 1.6 SSW 4 11 2 6 1011.5 - 0.0
23/11:00pm 23.4 27.1 20.7 85 1.8 SSE 2 7 1 4 1011.6 - 0.0
23/10:30pm 23.6 27.7 20.7 84 1.9 CALM 0 0 0 0 1011.9 - 0.0
23/10:00pm 23.8 27.1 20.7 83 2.0 NW 4 7 2 4 1012.0 - 0.0
23/09:30pm 23.8 26.4 20.5 82 2.2 N 7 9 4 5 1012.0 - 0.0
23/09:00pm 24.1 27.0 20.6 81 2.3 NE 6 7 3 4 1012.0 1011.1 0.0
23/08:30pm 24.2 26.8 20.5 80 2.4 ESE 7 9 4 5 1011.9 - 0.0
23/08:00pm 24.4 27.1 20.3 78 2.7 SE 6 7 3 4 1011.7 - 0.0
23/07:30pm 24.6 28.4 20.1 76 2.9 CALM 0 0 0 0 1011.5 - 0.0
23/07:00pm 25.1 29.0 20.4 75 3.1 E 0 0 0 0 1011.1 - 0.0
23/06:30pm 26.2 30.3 20.7 71 3.6 CALM 0 0 0 0 1010.7 - 0.0
23/06:00pm 26.5 29.4 21.0 72 3.7 E 7 11 4 6 1010.3 1009.4 0.0
23/05:30pm 27.2 29.6 21.5 71 3.8 ENE 11 15 6 8 1010.1 - 0.0
23/05:00pm 27.7 29.7 21.5 69 4.2 E 13 20 7 11 1009.9 - 0.0
23/04:30pm 28.2 30.3 21.7 68 4.4 NE 13 19 7 10 1010.0 - 0.0
23/04:00pm 28.8 30.7 22.1 67 4.5 NE 15 20 8 11 1010.1 - 0.0
23/03:30pm 29.0 30.1 22.0 66 4.7 ENE 19 22 10 12 1010.1 - 0.0
23/03:00pm 29.3 31.4 22.5 67 4.6 E 15 20 8 11 1010.1 1009.2 0.0
23/02:30pm 29.5 31.4 22.7 67 4.7 E 17 22 9 12 1010.3 - 0.0
23/02:00pm 29.5 31.9 23.0 68 4.5 ENE 15 26 8 14 1010.6 - 0.0
23/01:30pm 29.6 32.2 23.3 69 4.4 ENE 15 20 8 11 1011.0 - 0.0
23/01:00pm 29.5 32.0 23.2 69 4.3 ENE 15 26 8 14 1011.2 - 0.0
23/12:30pm 29.1 31.2 23.1 70 4.1 ENE 17 22 9 12 1011.7 - 0.0
23/12:00pm 29.2 31.1 23.4 71 4.0 ENE 19 30 10 16 1012.0 1011.1 0.0
23/11:30am 28.4 30.1 23.1 73 3.6 E 19 32 10 17 1012.4 - 0.0
23/11:00am 28.4 30.6 23.3 74 3.5 ENE 17 24 9 13 1012.8 - 0.0
23/10:30am 28.0 30.5 23.1 74 3.4 ENE 15 22 8 12 1013.2 - 0.0
23/10:00am 27.9 30.1 23.3 76 3.2 E 17 26 9 14 1013.1 - 0.0
23/09:30am 27.7 29.9 23.3 77 3.0 E 17 30 9 16 1013.0 - 0.0
23/09:00am 27.0 30.1 22.8 78 2.9 ENE 11 19 6 10 1012.7 1011.8 4.6
23/08:30am 26.9 28.9 22.9 79 2.7 E 17 28 9 15 1012.5 - 4.6
23/08:00am 27.0 29.6 23.3 80 2.5 E 15 24 8 13 1012.1 - 4.6
23/07:30am 26.3 29.1 23.0 82 2.3 E 13 20 7 11 1011.6 - 4.6
23/07:00am 25.4 28.5 22.1 82 2.2 E 9 17 5 9 1011.7 - 4.6
23/06:30am 25.0 28.2 21.7 82 2.2 ENE 7 9 4 5 1011.5 - 4.6
23/06:00am 25.0 27.9 21.7 82 2.2 E 9 17 5 9 1011.0 1010.1 4.6
23/05:30am 25.0 28.0 21.9 83 2.1 ENE 9 17 5 9 1010.6 - 4.6
23/05:00am 25.0 28.5 21.9 83 2.1 ENE 6 11 3 6 1010.1 - 4.6
23/04:30am 25.0 28.0 21.9 83 2.1 NE 9 15 5 8 1009.9 - 4.6
23/04:00am 25.1 28.5 22.0 83 2.1 E 7 11 4 6 1010.2 - 4.6
23/03:30am 24.9 28.2 21.8 83 2.1 NE 7 11 4 6 1009.9 - 4.6
23/03:00am 25.1 29.1 22.0 83 2.1 E 4 7 2 4 1010.2 1009.3 4.6
23/02:30am 25.0 28.0 21.9 83 2.1 E 9 13 5 7 1010.1 - 4.6
23/02:00am 25.3 28.7 22.0 82 2.2 E 7 11 4 6 1010.8 - 4.6
23/01:30am 25.5 29.1 22.4 83 2.1 ENE 7 11 4 6 1011.5 - 4.6
23/01:00am 25.3 29.8 22.2 83 2.1 ENE 2 7 1 4 1011.8 - 4.6
23/12:30am 25.4 28.7 22.5 84 2.0 ESE 9 15 5 8 1011.7 - 4.6
23/12:00am 25.5 29.0 22.8 85 1.8 ESE 9 15 5 8 1012.1 1011.2 4.6
 
Date/Time
EST
Temp
°C
App
Temp
°C
Dew
Point
Rel
Hum
%
Delta-T
°C
Wind Press
QNH
hPa
Press
MSL
hPa
Rain
since 9 am
mm
Dir
 
Spd
km/h
Gust
km/h
Spd
kts
Gust
kts
22/11:30pm 25.4 28.3 23.1 87 1.6 SE 13 19 7 10 1012.3 - 4.6
22/11:00pm 25.2 28.9 23.3 89 1.3 ESE 9 13 5 7 1012.4 - 4.6
22/10:30pm 24.9 29.5 23.1 90 1.2 E 4 9 2 5 1012.8 - 4.6
22/10:00pm 24.6 29.4 22.8 90 1.2 NNE 2 6 1 3 1013.0 - 4.6
22/09:30pm 24.8 28.9 22.9 89 1.3 NW 6 9 3 5 1013.3 - 4.6
22/09:00pm 24.6 28.3 22.5 88 1.4 NNW 7 20 4 11 1012.9 1012.0 4.6
22/08:30pm 24.8 28.5 22.5 87 1.6 WSW 7 9 4 5 1012.8 - 4.6
22/08:00pm 24.6 28.6 22.1 86 1.7 N 4 9 2 5 1012.1 - 4.6
22/07:30pm 24.3 26.7 21.6 85 1.8 ESE 11 17 6 9 1011.5 - 4.6
22/07:00pm 24.6 27.9 21.5 83 2.1 SE 6 7 3 4 1011.9 - 4.6
22/06:30pm 24.5 28.8 21.2 82 2.2 CALM 0 0 0 0 1012.0 - 4.4
22/06:00pm 24.6 28.4 20.9 80 2.4 NE 2 13 1 7 1012.1 1011.3 3.0
22/05:30pm 25.5 27.0 21.2 77 2.9 N 15 19 8 10 1012.2 - 0.0
22/05:00pm 27.1 29.4 22.1 74 3.4 NE 13 20 7 11 1011.7 - 0.0
22/04:30pm 28.0 29.8 22.5 72 3.7 E 17 26 9 14 1011.2 - 0.0
22/04:00pm 28.0 29.9 22.7 73 3.6 E 17 26 9 14 1011.0 - 0.0
22/03:30pm 27.8 30.3 22.5 73 3.6 ENE 13 22 7 12 1011.0 - 0.0
22/03:00pm 28.3 30.3 23.0 73 3.6 E 17 26 9 14 1010.8 1009.9 0.0
22/02:30pm 28.4 29.9 23.1 73 3.6 E 20 32 11 17 1011.1 - 0.0
22/02:00pm 28.9 30.8 23.8 74 3.5 E 20 33 11 18 1011.3 - 0.0
22/01:30pm 29.2 31.6 24.3 75 3.4 E 19 30 10 16 1011.5 - 0.0
22/01:00pm 29.2 32.1 24.5 76 3.3 ENE 17 24 9 13 1011.9 - 0.0
22/12:30pm 28.3 30.4 23.7 76 3.2 E 19 28 10 15 1012.5 - 0.0
22/12:00pm 28.9 30.9 24.5 77 3.1 ENE 22 30 12 16 1012.9 1012.0 0.0
22/11:30am 28.8 30.8 24.6 78 2.9 E 22 33 12 18 1013.7 - 0.0
22/11:00am 29.5 33.4 26.1 82 2.4 ESE 17 26 9 14 1013.9 - 0.0
22/10:30am 28.3 31.7 25.9 87 1.7 E 19 33 10 18 1014.3 - 0.0
22/10:00am 27.5 31.1 26.1 92 1.0 ENE 19 28 10 15 1014.5 - 0.0
22/09:30am 25.5 28.5 24.6 95 0.6 E 17 30 9 16 1014.2 - 0.0
22/09:00am 26.5 33.2 26.5 100 0.0 SE 4 11 2 6 1013.8 1013.0 27.2
22/08:30am 25.7 31.5 25.7 100 0.0 SE 6 9 3 5 1013.4 - 27.2
22/08:00am 24.1 28.7 24.1 100 0.0 ENE 7 11 4 6 1013.1 - 26.6
22/07:30am 23.8 28.4 23.8 100 0.0 ENE 6 11 3 6 1013.2 - 26.0
22/07:00am 23.7 27.7 23.7 100 0.0 NE 9 13 5 7 1012.8 - 23.4
22/06:30am 23.5 28.3 23.5 100 0.0 N 4 7 2 4 1012.3 - 23.4
22/06:00am 23.6 29.1 23.4 99 0.1 CALM 0 0 0 0 1012.0 1011.1 22.8
22/05:30am 23.6 27.8 23.1 97 0.3 W 6 9 3 5 1012.3 - 22.6
22/05:00am 23.6 27.7 22.9 96 0.5 SW 6 7 3 4 1012.0 - 21.0
22/04:30am 23.6 27.4 22.8 95 0.5 SSW 7 11 4 6 1011.9 - 20.2
22/04:00am 23.8 27.6 22.8 94 0.7 S 7 9 4 5 1011.9 - 9.8
22/03:30am 24.1 27.6 22.9 93 0.8 S 9 11 5 6 1012.0 - 3.0
22/03:00am 24.1 27.1 22.7 92 0.9 S 11 17 6 9 1011.9 1011.1 3.0
22/02:30am 24.4 28.9 23.0 92 1.0 WSW 4 7 2 4 1011.9 - 3.0
22/02:00am 24.3 29.4 22.7 91 1.1 CALM 0 0 0 0 1012.1 - 3.0
22/01:30am 24.2 28.4 22.5 90 1.1 WSW 4 7 2 4 1012.4 - 2.8
22/01:00am 24.4 29.0 22.5 89 1.3 WNW 2 7 1 4 1012.6 - 2.8
22/12:30am 24.4 29.2 22.1 87 1.5 CALM 0 0 0 0 1013.0 - 2.8
22/12:00am 24.4 27.9 21.9 86 1.7 ENE 6 9 3 5 1013.2 1012.3 2.6
 
Date/Time
EST
Temp
°C
App
Temp
°C
Dew
Point
Rel
Hum
%
Delta-T
°C
Wind Press
QNH
hPa
Press
MSL
hPa
Rain
since 9 am
mm
Dir
 
Spd
km/h
Gust
km/h
Spd
kts
Gust
kts
21/11:30pm 24.4 27.6 21.7 85 1.8 SE 7 11 4 6 1013.2 - 1.8
21/11:00pm 24.9 27.5 22.0 84 1.9 S 11 15 6 8 1013.2 - 0.6
21/10:30pm 24.9 28.3 22.0 84 1.9 S 7 11 4 6 1013.2 - 0.6
21/10:00pm 25.0 28.0 21.9 83 2.1 SE 9 11 5 6 1013.3 - 0.6
21/09:30pm 25.2 29.6 22.1 83 2.1 S 2 7 1 4 1013.5 - 0.6
21/09:00pm 25.2 29.1 21.9 82 2.2 SE 4 7 2 4 1013.4 1012.5 0.6
21/08:30pm 25.3 28.7 22.0 82 2.2 E 7 13 4 7 1013.0 - 0.6
21/08:00pm 25.6 29.1 22.1 81 2.4 ESE 7 13 4 7 1012.7 - 0.6
21/07:30pm 25.6 30.0 22.1 81 2.4 E 2 9 1 5 1012.4 - 0.6
21/07:00pm 25.7 30.5 22.2 81 2.4 CALM 0 4 0 2 1012.1 - 0.6
21/06:30pm 25.7 30.5 22.2 81 2.4 CALM 0 0 0 0 1011.8 - 0.6
21/06:00pm 25.6 29.1 22.1 81 2.4 E 7 11 4 6 1011.8 1010.9 0.6
21/05:30pm 25.5 28.0 21.8 80 2.5 ENE 11 15 6 8 1011.6 - 0.6
21/05:00pm 26.1 29.2 22.2 79 2.6 ENE 9 15 5 8 1011.4 - 0.6
21/04:30pm 25.6 27.9 21.3 77 2.9 SE 11 15 6 8 1011.3 - 0.6
21/04:00pm 26.9 30.4 22.1 75 3.2 SE 7 13 4 7 1011.1 - 0.4
21/03:30pm 27.4 30.9 22.1 73 3.6 ESE 7 11 4 6 1011.0 - 0.0
21/03:00pm 27.0 29.3 21.3 71 3.8 E 11 19 6 10 1011.1 1010.2 0.0

Other Formats:

Comma delimited format used in spreadsheet applications
http://www.bom.gov.au/fwo/IDQ60801/IDQ60801.94183.axf

JavaScript Object Notation format (JSON) in row-major order
http://www.bom.gov.au/fwo/IDQ60801/IDQ60801.94183.json